createdAt,value
2023-02-01T00:00:00.614Z,2.9
2023-02-01T00:10:00.644Z,3.0
2023-02-01T00:20:00.616Z,3.0
2023-02-01T00:30:00.669Z,3.2
2023-02-01T00:40:00.620Z,3.3
2023-02-01T00:50:00.638Z,3.5
2023-02-01T01:00:00.612Z,3.5
2023-02-01T01:10:00.613Z,3.5
2023-02-01T01:20:01.434Z,3.2
2023-02-01T01:30:00.795Z,3.1
2023-02-01T01:40:01.084Z,3.0
2023-02-01T01:50:00.803Z,2.9
2023-02-01T02:00:00.686Z,2.8
2023-02-01T02:10:01.541Z,2.6
2023-02-01T02:20:00.626Z,2.7
2023-02-01T02:30:00.605Z,2.8
2023-02-01T02:40:00.626Z,2.9
2023-02-01T02:50:00.605Z,2.9
2023-02-01T03:00:00.594Z,2.7
2023-02-01T03:10:00.611Z,2.4
2023-02-01T03:20:00.619Z,2.4
2023-02-01T03:30:00.716Z,2.2
2023-02-01T03:40:00.848Z,2.1
2023-02-01T03:50:00.736Z,2.1
2023-02-01T04:00:00.626Z,2.1
2023-02-01T04:10:00.673Z,2.1
2023-02-01T04:20:00.620Z,1.8
2023-02-01T04:30:00.624Z,1.9
2023-02-01T04:40:00.767Z,1.9
2023-02-01T04:50:00.621Z,1.9
2023-02-01T05:00:00.607Z,2.2
2023-02-01T05:10:00.665Z,2.5
2023-02-01T05:20:00.606Z,2.7
2023-02-01T05:30:00.713Z,2.8
2023-02-01T05:40:01.220Z,2.6
2023-02-01T05:50:00.659Z,2.3
2023-02-01T06:00:00.958Z,2.3
2023-02-01T06:10:00.618Z,2.3
2023-02-01T06:20:01.050Z,2.5
2023-02-01T06:30:00.802Z,2.7
2023-02-01T06:40:00.764Z,2.7
2023-02-01T06:50:00.802Z,2.6
2023-02-01T07:00:00.664Z,2.7
2023-02-01T07:10:00.613Z,2.8
2023-02-01T07:20:00.615Z,3.1
2023-02-01T07:30:00.692Z,3.3
2023-02-01T07:40:00.606Z,3.5
2023-02-01T07:50:00.623Z,3.8
2023-02-01T08:00:00.623Z,3.8
2023-02-01T08:10:00.651Z,3.7
2023-02-01T08:20:00.638Z,3.9
2023-02-01T08:30:00.630Z,4.3
2023-02-01T08:40:00.644Z,5.3
2023-02-01T08:50:00.621Z,6.2
2023-02-01T09:00:00.910Z,5.6
2023-02-01T09:10:00.948Z,5.5
2023-02-01T09:20:00.946Z,5.0
2023-02-01T09:30:00.848Z,4.7
2023-02-01T09:40:00.707Z,4.4
2023-02-01T09:50:00.657Z,4.2
2023-02-01T10:00:00.643Z,4.3
2023-02-01T10:10:00.648Z,4.4
2023-02-01T10:20:00.659Z,4.5
2023-02-01T10:30:00.686Z,4.7
2023-02-01T10:40:00.675Z,4.8
2023-02-01T10:50:00.658Z,4.8
2023-02-01T11:00:00.632Z,4.6
2023-02-01T11:10:00.637Z,4.7
2023-02-01T11:20:00.651Z,4.6
2023-02-01T11:30:00.681Z,4.3
2023-02-01T11:40:00.662Z,4.1
2023-02-01T11:50:00.638Z,3.9
2023-02-01T12:00:01.201Z,3.9
2023-02-01T12:10:00.637Z,3.9
2023-02-01T12:20:00.748Z,3.8
2023-02-01T12:30:00.649Z,3.5
2023-02-01T12:40:00.660Z,3.3
2023-02-01T12:50:00.664Z,3.4
2023-02-01T13:00:00.611Z,3.6
2023-02-01T13:10:00.664Z,4.1
2023-02-01T13:20:00.859Z,4.3
2023-02-01T13:30:00.784Z,4.3
2023-02-01T13:40:00.898Z,4.2
2023-02-01T13:50:00.874Z,4.7
2023-02-01T14:00:00.766Z,4.9
2023-02-01T14:10:00.672Z,4.7
2023-02-01T14:20:00.670Z,4.1
2023-02-01T14:30:00.812Z,4.0
2023-02-01T14:40:00.611Z,4.2
2023-02-01T14:50:00.608Z,4.1
2023-02-01T15:00:00.621Z,4.0
2023-02-01T15:10:00.647Z,3.9
2023-02-01T15:20:01.152Z,3.9
2023-02-01T15:30:00.910Z,3.9
2023-02-01T15:40:01.003Z,3.8
2023-02-01T15:50:00.560Z,3.9
2023-02-01T16:00:01.349Z,3.9
2023-02-01T16:10:00.649Z,3.7
2023-02-01T16:20:00.758Z,3.8
2023-02-01T16:30:01.039Z,3.7
2023-02-01T16:40:00.718Z,3.8
2023-02-01T16:50:04.163Z,3.8
2023-02-01T17:00:02.829Z,3.8
2023-02-01T17:10:00.661Z,3.8
2023-02-01T17:20:00.623Z,3.8
2023-02-01T17:30:00.531Z,3.9
2023-02-01T17:40:01.033Z,3.9
2023-02-01T17:50:00.863Z,3.8
2023-02-01T18:00:00.886Z,4.0
2023-02-01T18:10:00.826Z,3.9
2023-02-01T18:20:00.804Z,4.0
2023-02-01T18:30:00.631Z,3.9
2023-02-01T18:40:00.528Z,3.8
2023-02-01T18:50:00.546Z,3.8
2023-02-01T19:00:00.539Z,3.8
2023-02-01T19:10:00.540Z,3.7
2023-02-01T19:20:00.561Z,3.7
2023-02-01T19:30:00.654Z,3.7
2023-02-01T19:40:00.554Z,3.8
2023-02-01T19:50:00.590Z,3.7
2023-02-01T20:00:01.050Z,3.7
2023-02-01T20:10:00.038Z,3.8
2023-02-01T20:19:59.963Z,3.8
2023-02-01T20:30:00.721Z,3.9
2023-02-01T20:40:00.593Z,3.7
2023-02-01T20:50:00.590Z,3.5
2023-02-01T21:00:00.687Z,3.4
2023-02-01T21:10:00.663Z,3.3
2023-02-01T21:20:00.677Z,3.3
2023-02-01T21:30:00.610Z,3.2
2023-02-01T21:40:00.595Z,3.2
2023-02-01T21:50:00.574Z,3.2
2023-02-01T22:00:01.051Z,3.2
2023-02-01T22:10:00.689Z,3.1
2023-02-01T22:20:00.926Z,3.0
2023-02-01T22:30:00.812Z,3.0
2023-02-01T22:40:00.648Z,3.2
2023-02-01T22:50:00.545Z,3.3
2023-02-01T23:00:00.568Z,3.6
2023-02-01T23:10:00.572Z,3.8
2023-02-01T23:20:00.539Z,3.8
2023-02-01T23:30:00.557Z,3.8
2023-02-01T23:40:00.614Z,3.8
2023-02-01T23:50:00.585Z,3.8
